sensor_id;sensor_type;location;lat;lon;timestamp;pressure;altitude;pressure_sealevel;temperature;humidity
70206;BME280;57593;55.896;37.396;2023-02-14T00:00:15;98228.03;;;1.56;100.00
70206;BME280;57593;55.896;37.396;2023-02-14T00:00:45;98232.41;;;1.47;100.00
70206;BME280;57593;55.896;37.396;2023-02-14T00:01:16;98233.69;;;1.58;100.00
70206;BME280;57593;55.896;37.396;2023-02-14T00:01:47;98224.06;;;1.59;100.00
70206;BME280;57593;55.896;37.396;2023-02-14T00:02:18;98242.09;;;1.55;100.00
70206;BME280;57593;55.896;37.396;2023-02-14T00:02:49;98232.00;;;1.54;100.00
70206;BME280;57593;55.896;37.396;2023-02-14T00:03:20;98229.22;;;1.50;100.00
70206;BME280;57593;55.896;37.396;2023-02-14T00:03:50;98235.78;;;1.48;100.00
70206;BME280;57593;55.896;37.396;2023-02-14T00:04:21;98226.16;;;1.48;100.00
70206;BME280;57593;55.896;37.396;2023-02-14T00:04:51;98231.47;;;1.43;100.00
70206;BME280;57593;55.896;37.396;2023-02-14T00:05:22;98235.47;;;1.49;100.00
70206;BME280;57593;55.896;37.396;2023-02-14T00:05:53;98230.63;;;1.56;100.00
70206;BME280;57593;55.896;37.396;2023-02-14T00:06:23;98231.81;;;1.50;100.00
70206;BME280;57593;55.896;37.396;2023-02-14T00:06:54;98230.41;;;1.44;100.00
70206;BME280;57593;55.896;37.396;2023-02-14T00:07:24;98237.78;;;1.51;100.00
70206;BME280;57593;55.896;37.396;2023-02-14T00:07:55;98230.41;;;1.44;100.00
70206;BME280;57593;55.896;37.396;2023-02-14T00:08:25;98233.16;;;1.39;100.00
70206;BME280;57593;55.896;37.396;2023-02-14T00:08:56;98236.97;;;1.41;100.00
70206;BME280;57593;55.896;37.396;2023-02-14T00:09:27;98231.13;;;1.36;100.00
70206;BME280;57593;55.896;37.396;2023-02-14T00:09:57;98233.72;;;1.36;100.00
70206;BME280;57593;55.896;37.396;2023-02-14T00:10:28;98233.72;;;1.36;100.00
70206;BME280;57593;55.896;37.396;2023-02-14T00:10:58;98226.47;;;1.47;100.00
70206;BME280;57593;55.896;37.396;2023-02-14T00:11:29;98233.19;;;1.48;100.00
70206;BME280;57593;55.896;37.396;2023-02-14T00:12:00;98230.47;;;1.53;100.00
70206;BME280;57593;55.896;37.396;2023-02-14T00:12:32;98237.50;;;1.52;100.00
70206;BME280;57593;55.896;37.396;2023-02-14T00:13:03;98228.94;;;1.52;100.00
70206;BME280;57593;55.896;37.396;2023-02-14T00:13:33;98227.44;;;1.59;100.00
70206;BME280;57593;55.896;37.396;2023-02-14T00:14:04;98232.09;;;1.71;100.00
70206;BME280;57593;55.896;37.396;2023-02-14T00:14:54;98243.00;;;1.51;100.00
70206;BME280;57593;55.896;37.396;2023-02-14T00:15:42;98243.94;;;1.32;100.00
70206;BME280;57593;55.896;37.396;2023-02-14T00:16:13;98243.47;;;1.30;100.00
70206;BME280;57593;55.896;37.396;2023-02-14T00:16:44;98237.25;;;1.40;100.00
70206;BME280;57593;55.896;37.396;2023-02-14T00:17:14;98235.91;;;1.42;100.00
70206;BME280;57593;55.896;37.396;2023-02-14T00:17:45;98228.53;;;1.36;100.00
70206;BME280;57593;55.896;37.396;2023-02-14T00:18:16;98244.72;;;1.33;100.00
70206;BME280;57593;55.896;37.396;2023-02-14T00:18:46;98234.78;;;1.35;100.00
70206;BME280;57593;55.896;37.396;2023-02-14T00:19:32;98241.72;;;1.39;100.00
70206;BME280;57593;55.896;37.396;2023-02-14T00:20:06;98228.81;;;1.34;100.00
70206;BME280;57593;55.896;37.396;2023-02-14T00:20:36;98243.25;;;1.40;100.00
70206;BME280;57593;55.896;37.396;2023-02-14T00:21:07;98233.59;;;1.41;100.00
70206;BME280;57593;55.896;37.396;2023-02-14T00:21:38;98238.75;;;1.32;100.00
70206;BME280;57593;55.896;37.396;2023-02-14T00:22:09;98235.50;;;1.27;100.00
70206;BME280;57593;55.896;37.396;2023-02-14T00:22:40;98234.25;;;1.24;100.00
70206;BME280;57593;55.896;37.396;2023-02-14T00:23:10;98247.97;;;1.38;100.00
70206;BME280;57593;55.896;37.396;2023-02-14T00:23:41;98240.75;;;1.35;100.00
70206;BME280;57593;55.896;37.396;2023-02-14T00:24:44;98253.66;;;1.40;100.00
70206;BME280;57593;55.896;37.396;2023-02-14T00:25:15;98246.31;;;1.42;100.00
70206;BME280;57593;55.896;37.396;2023-02-14T00:25:46;98246.03;;;1.44;100.00
70206;BME280;57593;55.896;37.396;2023-02-14T00:26:17;98246.44;;;1.37;100.00
70206;BME280;57593;55.896;37.396;2023-02-14T00:26:48;98250.56;;;1.38;100.00
70206;BME280;57593;55.896;37.396;2023-02-14T00:27:19;98245.94;;;1.35;100.00
70206;BME280;57593;55.896;37.396;2023-02-14T00:27:50;98246.69;;;1.50;100.00
70206;BME280;57593;55.896;37.396;2023-02-14T00:28:20;98247.16;;;1.52;100.00
70206;BME280;57593;55.896;37.396;2023-02-14T00:28:51;98253.25;;;1.47;100.00
70206;BME280;57593;55.896;37.396;2023-02-14T00:29:28;98257.69;;;1.47;100.00
70206;BME280;57593;55.896;37.396;2023-02-14T00:29:59;98259.91;;;1.39;100.00
70206;BME280;57593;55.896;37.396;2023-02-14T00:30:33;98261.09;;;1.33;100.00
70206;BME280;57593;55.896;37.396;2023-02-14T00:31:04;98258.88;;;1.40;100.00
70206;BME280;57593;55.896;37.396;2023-02-14T00:31:35;98264.00;;;1.32;100.00
70206;BME280;57593;55.896;37.396;2023-02-14T00:32:06;98264.69;;;1.46;100.00
70206;BME280;57593;55.896;37.396;2023-02-14T00:32:38;98254.00;;;1.48;100.00
70206;BME280;57593;55.896;37.396;2023-02-14T00:33:09;98261.63;;;1.44;100.00
70206;BME280;57593;55.896;37.396;2023-02-14T00:33:41;98263.41;;;1.35;100.00
70206;BME280;57593;55.896;37.396;2023-02-14T00:34:14;98250.22;;;1.31;100.00
70206;BME280;57593;55.896;37.396;2023-02-14T00:34:45;98253.88;;;1.30;100.00
70206;BME280;57593;55.896;37.396;2023-02-14T00:35:16;98254.25;;;1.37;100.00
70206;BME280;57593;55.896;37.396;2023-02-14T00:35:47;98252.13;;;1.39;100.00
70206;BME280;57593;55.896;37.396;2023-02-14T00:36:19;98248.09;;;1.56;100.00
70206;BME280;57593;55.896;37.396;2023-02-14T00:36:50;98241.28;;;1.46;100.00
70206;BME280;57593;55.896;37.396;2023-02-14T00:37:21;98254.69;;;1.62;100.00
70206;BME280;57593;55.896;37.396;2023-02-14T00:37:51;98267.06;;;1.56;100.00
70206;BME280;57593;55.896;37.396;2023-02-14T00:38:23;98257.44;;;1.57;100.00
70206;BME280;57593;55.896;37.396;2023-02-14T00:38:53;98262.19;;;1.64;100.00
70206;BME280;57593;55.896;37.396;2023-02-14T00:39:24;98254.22;;;1.60;100.00
70206;BME280;57593;55.896;37.396;2023-02-14T00:39:55;98250.88;;;1.59;100.00
70206;BME280;57593;55.896;37.396;2023-02-14T00:40:25;98254.66;;;1.53;100.00
70206;BME280;57593;55.896;37.396;2023-02-14T00:41:01;98258.81;;;1.54;100.00
70206;BME280;57593;55.896;37.396;2023-02-14T00:41:32;98264.41;;;1.48;100.00
70206;BME280;57593;55.896;37.396;2023-02-14T00:42:03;98254.94;;;1.52;100.00
70206;BME280;57593;55.896;37.396;2023-02-14T00:42:34;98249.00;;;1.51;100.00
70206;BME280;57593;55.896;37.396;2023-02-14T00:43:04;98259.75;;;1.36;100.00
70206;BME280;57593;55.896;37.396;2023-02-14T00:43:35;98256.13;;;1.46;100.00
70206;BME280;57593;55.896;37.396;2023-02-14T00:44:07;98260.63;;;1.54;100.00
70206;BME280;57593;55.896;37.396;2023-02-14T00:44:38;98263.59;;;1.61;100.00
70206;BME280;57593;55.896;37.396;2023-02-14T00:45:08;98273.94;;;1.52;100.00
70206;BME280;57593;55.896;37.396;2023-02-14T00:45:39;98257.25;;;1.53;100.00
70206;BME280;57593;55.896;37.396;2023-02-14T00:46:10;98272.13;;;1.53;100.00
70206;BME280;57593;55.896;37.396;2023-02-14T00:46:41;98270.69;;;1.47;100.00
70206;BME280;57593;55.896;37.396;2023-02-14T00:47:12;98265.66;;;1.50;100.00
70206;BME280;57593;55.896;37.396;2023-02-14T00:47:43;98264.91;;;1.50;100.00
70206;BME280;57593;55.896;37.396;2023-02-14T00:48:15;98269.59;;;1.48;100.00
70206;BME280;57593;55.896;37.396;2023-02-14T00:48:46;98255.72;;;1.52;100.00
70206;BME280;57593;55.896;37.396;2023-02-14T00:49:16;98286.78;;;1.49;100.00
70206;BME280;57593;55.896;37.396;2023-02-14T00:49:47;98259.69;;;1.50;100.00
70206;BME280;57593;55.896;37.396;2023-02-14T00:50:18;98258.28;;;1.43;100.00
70206;BME280;57593;55.896;37.396;2023-02-14T00:50:48;98252.66;;;1.50;100.00
70206;BME280;57593;55.896;37.396;2023-02-14T00:51:19;98257.69;;;1.47;100.00
70206;BME280;57593;55.896;37.396;2023-02-14T00:51:50;98264.09;;;1.49;100.00
70206;BME280;57593;55.896;37.396;2023-02-14T00:52:21;98264.22;;;1.44;100.00
70206;BME280;57593;55.896;37.396;2023-02-14T00:52:51;98268.03;;;1.38;100.00
70206;BME280;57593;55.896;37.396;2023-02-14T00:53:22;98268.91;;;1.33;100.00
70206;BME280;57593;55.896;37.396;2023-02-14T00:53:53;98252.81;;;1.31;100.00
70206;BME280;57593;55.896;37.396;2023-02-14T00:54:24;98270.63;;;1.38;100.00
70206;BME280;57593;55.896;37.396;2023-02-14T00:54:55;98262.16;;;1.32;100.00
70206;BME280;57593;55.896;37.396;2023-02-14T00:55:25;98255.13;;;1.33;100.00
70206;BME280;57593;55.896;37.396;2023-02-14T00:55:56;98263.53;;;1.30;100.00
70206;BME280;57593;55.896;37.396;2023-02-14T00:56:27;98268.78;;;1.38;100.00
70206;BME280;57593;55.896;37.396;2023-02-14T00:56:58;98261.84;;;1.34;100.00
70206;BME280;57593;55.896;37.396;2023-02-14T00:57:28;98261.56;;;1.35;100.00
70206;BME280;57593;55.896;37.396;2023-02-14T00:58:00;98257.78;;;1.41;100.00
70206;BME280;57593;55.896;37.396;2023-02-14T00:58:31;98260.22;;;1.38;100.00
70206;BME280;57593;55.896;37.396;2023-02-14T00:59:02;98259.44;;;1.37;100.00
70206;BME280;57593;55.896;37.396;2023-02-14T00:59:32;98259.56;;;1.32;100.00
70206;BME280;57593;55.896;37.396;2023-02-14T01:00:03;98260.50;;;1.36;100.00
70206;BME280;57593;55.896;37.396;2023-02-14T01:00:34;98253.28;;;1.33;100.00
70206;BME280;57593;55.896;37.396;2023-02-14T01:01:05;98258.88;;;1.40;100.00
70206;BME280;57593;55.896;37.396;2023-02-14T01:01:36;98261.16;;;1.42;100.00
70206;BME280;57593;55.896;37.396;2023-02-14T01:02:07;98258.88;;;1.40;100.00
70206;BME280;57593;55.896;37.396;2023-02-14T01:02:38;98258.03;;;1.31;100.00
70206;BME280;57593;55.896;37.396;2023-02-14T01:03:08;98250.28;;;1.40;100.00
70206;BME280;57593;55.896;37.396;2023-02-14T01:03:39;98252.94;;;1.49;100.00
70206;BME280;57593;55.896;37.396;2023-02-14T01:04:10;98257.31;;;1.39;100.00
70206;BME280;57593;55.896;37.396;2023-02-14T01:04:42;98260.75;;;1.49;100.00
70206;BME280;57593;55.896;37.396;2023-02-14T01:05:12;98261.47;;;1.40;100.00
70206;BME280;57593;55.896;37.396;2023-02-14T01:05:43;98257.69;;;1.47;100.00
70206;BME280;57593;55.896;37.396;2023-02-14T01:06:14;98258.44;;;1.47;100.00
70206;BME280;57593;55.896;37.396;2023-02-14T01:06:45;98251.66;;;1.37;100.00
70206;BME280;57593;55.896;37.396;2023-02-14T01:07:16;98260.81;;;1.35;100.00
70206;BME280;57593;55.896;37.396;2023-02-14T01:07:47;98258.50;;;1.33;100.00
70206;BME280;57593;55.896;37.396;2023-02-14T01:08:18;98253.75;;;1.35;100.00
70206;BME280;57593;55.896;37.396;2023-02-14T01:08:49;98258.72;;;1.23;100.00
70206;BME280;57593;55.896;37.396;2023-02-14T01:09:19;98255.31;;;1.36;100.00
70206;BME280;57593;55.896;37.396;2023-02-14T01:09:50;98253.75;;;1.35;100.00
70206;BME280;57593;55.896;37.396;2023-02-14T01:10:21;98254.94;;;1.29;100.00
70206;BME280;57593;55.896;37.396;2023-02-14T01:10:51;98259.50;;;1.23;100.00
70206;BME280;57593;55.896;37.396;2023-02-14T01:11:23;98264.81;;;1.18;100.00
70206;BME280;57593;55.896;37.396;2023-02-14T01:11:56;98255.47;;;1.40;100.00
70206;BME280;57593;55.896;37.396;2023-02-14T01:12:27;98260.63;;;1.31;100.00
70206;BME280;57593;55.896;37.396;2023-02-14T01:12:58;98263.09;;;1.36;100.00
70206;BME280;57593;55.896;37.396;2023-02-14T01:13:28;98267.25;;;1.37;100.00
70206;BME280;57593;55.896;37.396;2023-02-14T01:13:59;98251.66;;;1.37;100.00
70206;BME280;57593;55.896;37.396;2023-02-14T01:14:30;98289.06;;;1.28;100.00
70206;BME280;57593;55.896;37.396;2023-02-14T01:15:01;98281.66;;;1.21;100.00
70206;BME280;57593;55.896;37.396;2023-02-14T01:15:32;98264.81;;;1.18;100.00
70206;BME280;57593;55.896;37.396;2023-02-14T01:16:05;98270.09;;;1.27;100.00
70206;BME280;57593;55.896;37.396;2023-02-14T01:16:37;98265.09;;;1.17;100.00
70206;BME280;57593;55.896;37.396;2023-02-14T01:17:08;98266.53;;;1.23;100.00
70206;BME280;57593;55.896;37.396;2023-02-14T01:20:33;98277.53;;;1.06;100.00
70206;BME280;57593;55.896;37.396;2023-02-14T01:21:12;98273.13;;;1.06;100.00
70206;BME280;57593;55.896;37.396;2023-02-14T01:21:42;98275.75;;;1.06;100.00
70206;BME280;57593;55.896;37.396;2023-02-14T01:22:13;98277.03;;;1.18;100.00
70206;BME280;57593;55.896;37.396;2023-02-14T01:22:43;98271.38;;;1.16;100.00
70206;BME280;57593;55.896;37.396;2023-02-14T01:23:14;98274.38;;;1.09;100.00
70206;BME280;57593;55.896;37.396;2023-02-14T01:23:46;98263.50;;;1.07;100.00
70206;BME280;57593;55.896;37.396;2023-02-14T01:24:17;98255.34;;;1.00;100.00
70206;BME280;57593;55.896;37.396;2023-02-14T01:24:47;98271.88;;;1.04;100.00
70206;BME280;57593;55.896;37.396;2023-02-14T01:25:18;98275.91;;;1.10;100.00
70206;BME280;57593;55.896;37.396;2023-02-14T01:25:49;98279.38;;;1.05;100.00
70206;BME280;57593;55.896;37.396;2023-02-14T01:26:21;98274.56;;;1.13;100.00
70206;BME280;57593;55.896;37.396;2023-02-14T01:26:52;98282.94;;;1.10;100.00
70206;BME280;57593;55.896;37.396;2023-02-14T01:27:22;98279.38;;;1.05;100.00
70206;BME280;57593;55.896;37.396;2023-02-14T01:27:53;98284.00;;;1.08;100.00
70206;BME280;57593;55.896;37.396;2023-02-14T01:28:23;98301.88;;;0.87;100.00
70206;BME280;57593;55.896;37.396;2023-02-14T01:28:54;98288.50;;;0.80;100.00
70206;BME280;57593;55.896;37.396;2023-02-14T01:29:25;98278.94;;;0.89;100.00
70206;BME280;57593;55.896;37.396;2023-02-14T01:29:56;98279.63;;;0.95;100.00
70206;BME280;57593;55.896;37.396;2023-02-14T01:30:26;98287.03;;;0.88;100.00
70206;BME280;57593;55.896;37.396;2023-02-14T01:30:57;98274.59;;;0.99;100.00
70206;BME280;57593;55.896;37.396;2023-02-14T01:31:29;98278.16;;;1.03;100.00
70206;BME280;57593;55.896;37.396;2023-02-14T01:32:00;98279.50;;;1.00;100.00
70206;BME280;57593;55.896;37.396;2023-02-14T01:32:31;98274.84;;;1.11;100.00
70206;BME280;57593;55.896;37.396;2023-02-14T01:33:02;98283.25;;;1.08;100.00
70206;BME280;57593;55.896;37.396;2023-02-14T01:33:32;98286.78;;;1.12;100.00
70206;BME280;57593;55.896;37.396;2023-02-14T01:34:04;98284.00;;;1.08;100.00
70206;BME280;57593;55.896;37.396;2023-02-14T01:34:34;98292.22;;;1.02;100.00
70206;BME280;57593;55.896;37.396;2023-02-14T01:35:05;98292.50;;;1.00;100.00
70206;BME280;57593;55.896;37.396;2023-02-14T01:35:36;98280.47;;;1.04;100.00
70206;BME280;57593;55.896;37.396;2023-02-14T01:36:23;98294.94;;;0.97;100.00
70206;BME280;57593;55.896;37.396;2023-02-14T01:36:54;98289.97;;;1.09;100.00
70206;BME280;57593;55.896;37.396;2023-02-14T01:37:25;98298.84;;;1.08;100.00
70206;BME280;57593;55.896;37.396;2023-02-14T01:37:56;98290.25;;;1.07;100.00
70206;BME280;57593;55.896;37.396;2023-02-14T01:38:26;98292.91;;;0.94;100.00
70206;BME280;57593;55.896;37.396;2023-02-14T01:39:00;98284.31;;;0.93;100.00
70206;BME280;57593;55.896;37.396;2023-02-14T01:39:31;98282.91;;;0.87;100.00
70206;BME280;57593;55.896;37.396;2023-02-14T01:40:04;98280.94;;;1.06;100.00
70206;BME280;57593;55.896;37.396;2023-02-14T01:40:41;98290.34;;;1.16;100.00
70206;BME280;57593;55.896;37.396;2023-02-14T01:41:13;98283.53;;;1.06;100.00
70206;BME280;57593;55.896;37.396;2023-02-14T01:41:45;98286.78;;;1.12;100.00
70206;BME280;57593;55.896;37.396;2023-02-14T01:42:20;98284.13;;;1.03;100.00
70206;BME280;57593;55.896;37.396;2023-02-14T01:42:50;98295.00;;;1.05;100.00
70206;BME280;57593;55.896;37.396;2023-02-14T01:43:21;98297.59;;;1.05;100.00
70206;BME280;57593;55.896;37.396;2023-02-14T01:44:07;98285.06;;;1.07;100.00
70206;BME280;57593;55.896;37.396;2023-02-14T01:45:39;98291.34;;;1.06;100.00
70206;BME280;57593;55.896;37.396;2023-02-14T01:46:10;98285.13;;;1.16;100.00
70206;BME280;57593;55.896;37.396;2023-02-14T01:46:42;98295.63;;;1.25;100.00
70206;BME280;57593;55.896;37.396;2023-02-14T01:47:15;98293.50;;;1.27;100.00
70206;BME280;57593;55.896;37.396;2023-02-14T01:47:50;98290.22;;;1.21;100.00
70206;BME280;57593;55.896;37.396;2023-02-14T01:48:23;98293.63;;;1.22;100.00
70206;BME280;57593;55.896;37.396;2023-02-14T01:49:02;98298.56;;;1.32;100.00
70206;BME280;57593;55.896;37.396;2023-02-14T01:49:37;98293.75;;;1.39;100.00
70206;BME280;57593;55.896;37.396;2023-02-14T01:50:31;98299.00;;;1.25;100.00
70206;BME280;57593;55.896;37.396;2023-02-14T01:51:04;98289.59;;;1.16;100.00
70206;BME280;57593;55.896;37.396;2023-02-14T01:51:42;98291.81;;;1.08;100.00
70206;BME280;57593;55.896;37.396;2023-02-14T01:52:22;98292.94;;;1.16;100.00
70206;BME280;57593;55.896;37.396;2023-02-14T01:53:20;98299.69;;;1.17;100.00
70206;BME280;57593;55.896;37.396;2023-02-14T01:53:53;98297.44;;;1.24;100.00
70206;BME280;57593;55.896;37.396;2023-02-14T01:54:25;98299.75;;;1.26;100.00
70206;BME280;57593;55.896;37.396;2023-02-14T01:55:01;98309.28;;;1.31;100.00
70206;BME280;57593;55.896;37.396;2023-02-14T01:55:36;98301.88;;;1.24;100.00
70206;BME280;57593;55.896;37.396;2023-02-14T01:56:12;98299.28;;;1.24;100.00
70206;BME280;57593;55.896;37.396;2023-02-14T01:56:47;98300.81;;;1.25;100.00
70206;BME280;57593;55.896;37.396;2023-02-14T01:57:19;98299.44;;;1.28;100.00
70206;BME280;57593;55.896;37.396;2023-02-14T01:57:59;98301.28;;;1.27;100.00
70206;BME280;57593;55.896;37.396;2023-02-14T01:58:32;98293.41;;;1.18;100.00
70206;BME280;57593;55.896;37.396;2023-02-14T01:59:08;98299.38;;;1.33;100.00
70206;BME280;57593;55.896;37.396;2023-02-14T01:59:44;98298.09;;;1.30;100.00
70206;BME280;57593;55.896;37.396;2023-02-14T02:00:19;98296.16;;;1.36;100.00
70206;BME280;57593;55.896;37.396;2023-02-14T02:01:13;98299.31;;;1.47;100.00
70206;BME280;57593;55.896;37.396;2023-02-14T02:01:47;98306.00;;;1.39;100.00
70206;BME280;57593;55.896;37.396;2023-02-14T02:02:21;98302.06;;;1.28;100.00
70206;BME280;57593;55.896;37.396;2023-02-14T02:02:54;98301.97;;;1.33;100.00
70206;BME280;57593;55.896;37.396;2023-02-14T02:03:46;98297.06;;;1.31;100.00
70206;BME280;57593;55.896;37.396;2023-02-14T02:04:38;98302.25;;;1.31;100.00
70206;BME280;57593;55.896;37.396;2023-02-14T02:05:10;98308.69;;;1.34;100.00
70206;BME280;57593;55.896;37.396;2023-02-14T02:05:46;98306.34;;;1.10;100.00
70206;BME280;57593;55.896;37.396;2023-02-14T02:06:34;98298.22;;;1.25;100.00
70206;BME280;57593;55.896;37.396;2023-02-14T02:07:12;98306.63;;;1.22;100.00
70206;BME280;57593;55.896;37.396;2023-02-14T02:07:44;98309.09;;;1.27;100.00
70206;BME280;57593;55.896;37.396;2023-02-14T02:08:15;98306.97;;;1.29;100.00
70206;BME280;57593;55.896;37.396;2023-02-14T02:08:56;98319.03;;;1.25;100.00
70206;BME280;57593;55.896;37.396;2023-02-14T02:09:39;98315.88;;;1.14;100.00
70206;BME280;57593;55.896;37.396;2023-02-14T02:10:12;98317.47;;;1.01;100.00
70206;BME280;57593;55.896;37.396;2023-02-14T02:10:43;98309.53;;;1.06;100.00
70206;BME280;57593;55.896;37.396;2023-02-14T02:11:14;98317.66;;;1.28;100.00
70206;BME280;57593;55.896;37.396;2023-02-14T02:11:44;98309.69;;;1.24;100.00
70206;BME280;57593;55.896;37.396;2023-02-14T02:12:15;98309.81;;;1.19;100.00
70206;BME280;57593;55.896;37.396;2023-02-14T02:12:48;98317.66;;;1.28;100.00
70206;BME280;57593;55.896;37.396;2023-02-14T02:13:20;98312.78;;;1.12;100.00
70206;BME280;57593;55.896;37.396;2023-02-14T02:13:51;98314.16;;;1.10;100.00
70206;BME280;57593;55.896;37.396;2023-02-14T02:14:42;98310.78;;;1.09;100.00
70206;BME280;57593;55.896;37.396;2023-02-14T02:15:13;98315.63;;;1.02;100.00
70206;BME280;57593;55.896;37.396;2023-02-14T02:15:58;98306.38;;;0.96;100.00
70206;BME280;57593;55.896;37.396;2023-02-14T02:18:18;98310.63;;;0.92;100.00
70206;BME280;57593;55.896;37.396;2023-02-14T02:19:53;98324.78;;;0.85;100.00
70206;BME280;57593;55.896;37.396;2023-02-14T02:21:01;98316.59;;;0.92;100.00
70206;BME280;57593;55.896;37.396;2023-02-14T02:24:30;98318.72;;;0.76;100.00
70206;BME280;57593;55.896;37.396;2023-02-14T02:28:17;98318.72;;;0.62;100.00
70206;BME280;57593;55.896;37.396;2023-02-14T02:30:53;98317.38;;;0.65;100.00
70206;BME280;57593;55.896;37.396;2023-02-14T02:31:35;98324.78;;;0.71;100.00
70206;BME280;57593;55.896;37.396;2023-02-14T02:32:19;98329.91;;;0.77;100.00
70206;BME280;57593;55.896;37.396;2023-02-14T02:34:31;98321.72;;;0.69;100.00
70206;BME280;57593;55.896;37.396;2023-02-14T02:37:37;98333.94;;;0.69;100.00
70206;BME280;57593;55.896;37.396;2023-02-14T02:40:19;98327.66;;;0.70;100.00
70206;BME280;57593;55.896;37.396;2023-02-14T02:42:35;98325.56;;;0.72;100.00
70206;BME280;57593;55.896;37.396;2023-02-14T02:43:52;98339.81;;;0.75;100.00
70206;BME280;57593;55.896;37.396;2023-02-14T02:44:46;98328.75;;;0.69;100.00
70206;BME280;57593;55.896;37.396;2023-02-14T02:47:59;98333.66;;;0.70;100.00
70206;BME280;57593;55.896;37.396;2023-02-14T02:48:14;98329.50;;;0.69;100.00
70206;BME280;57593;55.896;37.396;2023-02-14T02:49:10;98326.44;;;0.81;100.00
70206;BME280;57593;55.896;37.396;2023-02-14T02:50:55;98337.78;;;0.71;100.00
70206;BME280;57593;55.896;37.396;2023-02-14T02:51:51;98327.78;;;0.79;100.00
70206;BME280;57593;55.896;37.396;2023-02-14T02:52:49;98330.84;;;0.67;100.00
70206;BME280;57593;55.896;37.396;2023-02-14T02:54:01;98326.63;;;0.71;100.00
70206;BME280;57593;55.896;37.396;2023-02-14T02:54:40;98334.59;;;0.75;100.00
70206;BME280;57593;55.896;37.396;2023-02-14T02:55:25;98318.81;;;0.85;100.00
70206;BME280;57593;55.896;37.396;2023-02-14T02:56:54;98322.19;;;0.85;100.00
70206;BME280;57593;55.896;37.396;2023-02-14T02:57:33;98324.47;;;0.87;100.00
70206;BME280;57593;55.896;37.396;2023-02-14T02:58:05;98327.59;;;0.89;100.00
70206;BME280;57593;55.896;37.396;2023-02-14T02:58:40;98323.63;;;0.92;100.00
70206;BME280;57593;55.896;37.396;2023-02-14T02:59:56;98318.88;;;1.07;100.00
70206;BME280;57593;55.896;37.396;2023-02-14T03:00:28;98330.63;;;1.05;100.00
70206;BME280;57593;55.896;37.396;2023-02-14T03:01:02;98330.75;;;1.00;100.00
70206;BME280;57593;55.896;37.396;2023-02-14T03:01:38;98325.44;;;1.05;100.00
70206;BME280;57593;55.896;37.396;2023-02-14T03:02:15;98319.81;;;1.12;100.00
70206;BME280;57593;55.896;37.396;2023-02-14T03:02:50;98327.66;;;0.98;100.00
70206;BME280;57593;55.896;37.396;2023-02-14T03:03:44;98328.78;;;1.05;100.00
70206;BME280;57593;55.896;37.396;2023-02-14T03:04:38;98326.31;;;1.00;100.00
70206;BME280;57593;55.896;37.396;2023-02-14T03:05:27;98318.41;;;0.92;100.00
70206;BME280;57593;55.896;37.396;2023-02-14T03:05:59;98320.53;;;0.89;100.00
70206;BME280;57593;55.896;37.396;2023-02-14T03:06:31;98325.06;;;0.84;100.00
70206;BME280;57593;55.896;37.396;2023-02-14T03:07:02;98319.56;;;0.85;100.00
70206;BME280;57593;55.896;37.396;2023-02-14T03:07:56;98319.97;;;0.93;100.00
70206;BME280;57593;55.896;37.396;2023-02-14T03:08:27;98318.28;;;1.11;100.00
70206;BME280;57593;55.896;37.396;2023-02-14T03:10:21;98326.06;;;1.11;100.00
70206;BME280;57593;55.896;37.396;2023-02-14T03:10:51;98331.78;;;1.13;100.00
70206;BME280;57593;55.896;37.396;2023-02-14T03:11:23;98329.34;;;1.16;100.00
70206;BME280;57593;55.896;37.396;2023-02-14T03:14:25;98319.66;;;0.94;100.00
70206;BME280;57593;55.896;37.396;2023-02-14T03:20:00;98329.13;;;0.76;100.00
70206;BME280;57593;55.896;37.396;2023-02-14T03:23:15;98331.63;;;0.67;100.00
70206;BME280;57593;55.896;37.396;2023-02-14T03:24:56;98335.56;;;0.65;100.00
70206;BME280;57593;55.896;37.396;2023-02-14T03:25:46;98335.75;;;0.68;100.00
70206;BME280;57593;55.896;37.396;2023-02-14T03:26:50;98332.97;;;0.65;100.00
70206;BME280;57593;55.896;37.396;2023-02-14T03:27:56;98334.81;;;0.64;100.00
70206;BME280;57593;55.896;37.396;2023-02-14T03:32:12;98334.31;;;0.76;100.00
70206;BME280;57593;55.896;37.396;2023-02-14T03:33:11;98337.00;;;0.85;100.00
70206;BME280;57593;55.896;37.396;2023-02-14T03:34:03;98332.28;;;0.87;100.00
70206;BME280;57593;55.896;37.396;2023-02-14T03:34:59;98339.50;;;0.76;100.00
70206;BME280;57593;55.896;37.396;2023-02-14T03:35:53;98333.66;;;0.70;100.00
70206;BME280;57593;55.896;37.396;2023-02-14T03:36:35;98349.31;;;0.65;100.00
70206;BME280;57593;55.896;37.396;2023-02-14T03:37:13;98351.56;;;0.72;100.00
70206;BME280;57593;55.896;37.396;2023-02-14T03:38:28;98348.69;;;0.74;100.00
70206;BME280;57593;55.896;37.396;2023-02-14T03:39:15;98350.41;;;0.64;100.00
70206;BME280;57593;55.896;37.396;2023-02-14T03:40:45;98345.22;;;0.78;100.00
70206;BME280;57593;55.896;37.396;2023-02-14T03:41:22;98342.22;;;0.71;100.00
70206;BME280;57593;55.896;37.396;2023-02-14T03:42:00;98333.72;;;0.65;100.00
70206;BME280;57593;55.896;37.396;2023-02-14T03:42:46;98351.56;;;0.72;100.00
70206;BME280;57593;55.896;37.396;2023-02-14T03:43:41;98348.69;;;0.74;100.00
70206;BME280;57593;55.896;37.396;2023-02-14T03:44:16;98348.28;;;0.80;100.00
70206;BME280;57593;55.896;37.396;2023-02-14T03:44:51;98341.91;;;0.86;100.00
70206;BME280;57593;55.896;37.396;2023-02-14T03:45:36;98359.25;;;0.77;100.00
70206;BME280;57593;55.896;37.396;2023-02-14T03:46:34;98350.88;;;0.80;100.00
70206;BME280;57593;55.896;37.396;2023-02-14T03:47:10;98359.16;;;0.68;100.00
70206;BME280;57593;55.896;37.396;2023-02-14T03:47:42;98335.56;;;0.65;100.00
70206;BME280;57593;55.896;37.396;2023-02-14T03:48:15;98352.13;;;0.83;100.00